Date,TemperatureHighF,TemperatureAvgF,TemperatureLowF,DewpointHighF,DewpointAvgF,DewpointLowF,HumidityHigh,HumidityAvg,HumidityLow,PressureMaxIn,PressureMinIn,WindSpeedMaxMPH,WindSpeedAvgMPH,GustSpeedMaxMPH,PrecipitationSumIn
2013-1-1,34.0,23.5,16.0,18.0,10.5,7.0,67,57,42,30.19,30.03,25,12,33,0.00
2013-1-2,34.0,25.7,14.0,10.0,5.9,-2.0,53,42,31,30.26,30.16,22,11,30,0.00
2013-1-3,34.0,22.9,9.0,7.0,1.9,-2.0,60,40,28,30.24,30.07,27,14,37,0.00
2013-1-4,37.0,26.0,18.0,12.0,5.6,0.0,57,41,32,30.10,30.02,17,-5,24,0.00
2013-1-5,37.0,27.2,16.0,16.0,9.1,1.0,62,46,37,30.21,30.05,21,10,29,0.00
2013-1-6,43.0,32.5,27.0,12.0,9.5,7.0,49,38,28,30.05,29.85,30,14,35,0.00
2013-1-7,43.0,31.9,23.0,18.0,14.4,10.0,58,48,33,29.89,29.66,15,7,25,0.00
2013-1-8,48.0,39.1,28.0,19.0,14.9,10.0,51,37,21,29.98,29.68,29,-44,41,0.00
2013-1-9,54.0,44.2,28.0,23.0,18.6,12.0,50,36,25,29.97,29.70,23,17,32,0.00
2013-1-10,46.0,35.5,18.0,25.0,17.9,9.0,73,49,31,29.70,29.52,20,11,28,0.00
2013-1-11,18.0,10.4,7.0,9.0,2.0,-4.0,78,68,60,30.04,29.67,21,10,25,0.00
2013-1-12,12.0,7.6,1.0,1.0,-2.1,-8.0,71,63,55,30.06,30.02,15,7,20,0.00
2013-1-13,16.0,7.6,1.0,0.0,-5.2,-9.0,71,55,44,30.11,30.06,20,10,27,0.00
2013-1-14,18.0,11.8,7.0,0.0,-5.5,-8.0,55,45,37,30.09,29.96,23,15,29,0.00
2013-1-15,30.0,21.7,18.0,14.0,6.4,0.0,62,51,44,30.09,29.96,25,18,37,0.00
2013-1-16,36.0,28.5,25.0,18.0,12.5,9.0,58,51,43,30.27,30.07,23,14,38,0.00
2013-1-17,43.0,31.2,21.0,18.0,13.2,10.0,62,48,33,30.29,30.01,25,15,33,0.00
2013-1-18,46.0,38.5,32.0,18.0,14.8,12.0,47,37,30,30.01,29.89,23,14,33,0.00
2013-1-19,39.0,31.8,23.0,21.0,14.4,9.0,68,49,32,30.20,29.99,10,5,0,0.00
2013-1-20,37.0,23.0,12.0,16.0,10.9,3.0,78,60,37,30.36,30.07,14,6,20,0.00
2013-1-21,34.0,20.6,12.0,18.0,10.5,5.0,78,64,51,30.22,29.96,9,2,0,0.00
2013-1-22,46.0,31.7,21.0,16.0,11.4,9.0,58,44,26,30.05,29.96,16,7,22,0.00
2013-1-23,34.0,22.5,18.0,12.0,9.9,9.0,72,58,37,30.12,29.88,9,3,0,0.00
2013-1-24,54.0,40.6,18.0,25.0,16.3,9.0,67,38,25,30.06,29.83,32,9,38,0.00
2013-1-25,52.0,36.7,23.0,25.0,18.5,10.0,68,49,31,30.06,29.90,21,7,27,0.00
2013-1-26,54.0,42.1,34.0,25.0,20.0,16.0,51,41,27,29.91,29.68,16,6,24,0.00
2013-1-27,36.0,31.9,27.0,25.0,20.0,16.0,68,61,47,29.81,29.68,14,3,20,0.00
2013-1-28,37.0,27.5,18.0,21.0,15.2,5.0,79,62,27,29.82,29.71,18,-9,27,0.00
2013-1-29,27.0,19.0,3.0,14.0,5.4,-6.0,67,55,38,30.09,29.69,18,7,24,0.00
2013-1-30,28.0,21.4,7.0,21.0,10.9,-2.0,79,64,44,29.97,29.79,20,-7,28,0.00
2013-1-31,28.0,18.3,3.0,18.0,8.8,-6.0,71,65,53,30.12,29.98,22,-30,28,0.00
2013-2-1,45.0,34.3,27.0,27.0,19.4,16.0,64,54,36,30.17,29.95,20,8,24,0.00
2013-2-2,46.0,31.3,19.0,21.0,16.4,9.0,73,55,36,30.25,30.13,21,9,25,0.00
2013-2-3,52.0,36.0,28.0,25.0,17.6,10.0,63,47,23,30.13,29.90,24,-3,33,0.00
2013-2-4,52.0,38.2,28.0,21.0,17.5,10.0,58,43,27,29.90,29.78,29,11,39,0.00
2013-2-5,48.0,37.6,28.0,25.0,18.0,10.0,63,45,34,29.93,29.73,15,8,22,0.00
2013-2-6,50.0,37.2,27.0,18.0,13.8,9.0,50,38,26,30.03,29.73,23,9,31,0.00
2013-2-7,45.0,32.4,21.0,19.0,14.3,9.0,73,48,33,30.04,29.87,13,5,20,0.00
2013-2-8,43.0,31.9,23.0,18.0,14.3,10.0,63,49,33,29.91,29.85,8,3,0,0.00
2013-2-9,39.0,30.3,19.0,25.0,17.6,10.0,80,59,41,29.87,29.76,17,2,22,0.00
2013-2-10,30.0,24.6,12.0,23.0,13.4,-0.0,79,62,46,30.08,29.87,20,9,27,0.00
2013-2-11,28.0,18.9,7.0,12.0,6.8,-2.0,78,59,45,30.06,29.91,25,14,36,0.00
2013-2-12,36.0,26.1,18.0,18.0,9.8,3.0,62,49,40,30.02,29.87,18,10,27,0.00
2013-2-13,52.0,34.6,28.0,25.0,16.0,10.0,63,46,29,30.08,29.84,23,7,30,0.00
2013-2-14,32.0,27.5,25.0,18.0,14.7,9.0,73,58,43,30.27,30.06,0,-56,0,0.00
2013-2-15,37.0,29.2,23.0,21.0,13.5,9.0,58,51,44,30.29,30.10,22,6,30,0.00
2013-2-16,46.0,36.2,27.0,21.0,15.5,10.0,50,42,36,30.10,29.74,23,11,30,0.00
2013-2-17,45.0,35.5,28.0,23.0,17.0,12.0,59,47,26,29.94,29.66,28,11,37,0.00
2013-2-18,34.0,27.2,19.0,16.0,12.8,9.0,67,54,40,30.07,29.94,14,5,18,0.00
2013-2-19,28.0,20.6,12.0,16.0,10.8,3.0,73,65,57,29.96,29.75,9,3,0,0.00
2013-2-20,32.0,23.3,16.0,18.0,12.7,7.0,73,64,50,29.87,29.76,9,2,0,0.00
2013-2-21,39.0,26.3,19.0,21.0,15.5,10.0,79,64,38,29.92,29.85,10,2,15,0.00
2013-2-22,39.0,30.8,21.0,16.0,12.5,9.0,68,48,32,29.89,29.65,20,12,29,0.00
2013-2-23,39.0,34.2,28.0,21.0,12.2,9.0,63,40,31,29.95,29.58,18,4,27,0.00
2013-2-24,43.0,32.3,25.0,16.0,11.6,7.0,58,42,25,30.10,29.95,0,0,0,0.00
2013-2-25,45.0,35.7,27.0,18.0,11.0,7.0,50,36,26,29.97,29.78,0,0,0,0.00
2013-2-26,45.0,35.3,27.0,18.0,12.1,9.0,58,39,22,30.16,29.87,0,0,0,0.00
2013-2-27,46.0,31.3,16.0,16.0,11.0,7.0,72,46,21,30.17,30.11,0,0,0,0.00
2013-2-28,48.0,34.7,25.0,18.0,11.9,9.0,58,40,22,30.22,30.12,0,-321,0,0.00
2013-3-1,61.0,42.0,28.0,27.0,17.5,9.0,46,37,26,30.20,30.13,0,-999,0,0.00
2013-3-2,59.0,45.9,37.0,27.0,23.0,19.0,51,40,28,30.17,29.86,0,-999,0,0.00
2013-3-3,54.0,39.1,27.0,28.0,18.9,7.0,69,44,34,29.86,29.54,0,-999,0,0.00
2013-3-4,32.0,22.8,12.0,10.0,6.5,3.0,72,49,33,30.27,29.84,0,-999,0,0.00
2013-3-5,30.0,20.1,7.0,18.0,9.5,0.0,78,63,46,30.25,29.99,0,-999,0,0.00
2013-3-6,37.0,26.2,14.0,21.0,15.1,7.0,79,63,47,30.00,29.72,0,-999,0,0.00
2013-3-7,54.0,39.1,25.0,23.0,16.7,7.0,68,45,14,29.99,29.76,0,-999,0,0.00
2013-3-8,46.0,35.7,27.0,25.0,20.5,16.0,73,54,39,29.98,29.84,0,-999,0,0.00
2013-3-9,48.0,35.1,21.0,21.0,13.7,9.0,79,44,22,30.19,29.90,0,-999,0,0.00
2013-3-10,57.0,38.9,19.0,18.0,13.5,9.0,68,39,16,30.17,29.97,0,-999,0,0.00
2013-3-11,46.0,38.9,27.0,23.0,16.6,10.0,68,40,26,30.25,29.96,0,-999,0,0.00
2013-3-12,50.0,33.2,18.0,19.0,15.8,10.0,79,52,26,30.25,29.99,0,-999,0,0.00
2013-3-13,68.0,50.7,34.0,30.0,20.8,12.0,47,31,18,30.09,29.99,0,-999,0,0.00
2013-3-14,66.0,53.3,37.0,28.0,24.1,18.0,52,33,22,30.12,29.91,16,-351,22,0.00
2013-3-15,66.0,53.0,37.0,27.0,21.3,16.0,55,30,15,30.04,29.87,32,-1,41,0.00
2013-3-16,50.0,36.3,27.0,27.0,22.1,16.0,74,57,34,30.03,29.65,14,6,17,0.00
2013-3-17,43.0,33.5,18.0,27.0,15.5,1.0,74,49,18,29.89,29.49,31,-14,37,0.00
2013-3-18,45.0,29.0,12.0,10.0,5.9,0.0,67,41,15,29.95,29.80,31,-4,43,0.00
2013-3-19,37.0,29.1,18.0,19.0,12.7,9.0,73,51,32,30.22,29.94,12,4,15,0.00
2013-3-20,57.0,36.0,18.0,19.0,13.9,9.0,73,44,19,30.14,29.57,15,5,23,0.00
2013-3-21,48.0,39.5,27.0,28.0,14.4,3.0,69,37,17,29.88,29.54,23,-1,32,0.00
2013-3-22,32.0,25.2,16.0,25.0,11.2,1.0,80,56,31,30.09,29.84,18,-8,23,0.00
2013-3-23,36.0,23.9,12.0,12.0,2.2,-8.0,73,43,17,30.19,30.09,16,8,36,0.00
2013-3-24,36.0,21.5,9.0,7.0,2.4,-2.0,66,46,22,30.23,30.15,13,4,22,0.00
2013-3-25,46.0,28.2,7.0,7.0,1.2,-2.0,66,36,15,30.20,29.98,22,7,29,0.00
2013-3-26,54.0,40.2,28.0,19.0,8.6,0.0,34,27,19,29.99,29.91,15,5,20,0.00
2013-3-27,61.0,42.6,19.0,19.0,14.0,7.0,57,33,18,29.99,29.93,14,-23,20,0.00
2013-3-28,64.0,48.0,28.0,27.0,19.1,14.0,59,33,17,30.06,29.98,12,5,16,0.00
2013-3-29,61.0,47.7,36.0,37.0,26.4,16.0,75,45,26,30.10,30.00,15,-22,39,0.00
2013-3-30,61.0,49.8,37.0,36.0,22.6,-99.9,75,38,19,30.15,30.05,27,9,32,0.00
2013-3-31,61.0,45.1,30.0,25.0,18.9,14.0,59,36,21,30.11,29.97,21,9,29,0.00
2013-4-1,57.0,41.7,23.0,23.0,17.6,12.0,68,40,20,30.11,30.04,14,-10,21,0.00
2013-4-2,68.0,47.1,27.0,28.0,19.1,12.0,63,36,17,30.06,29.90,12,5,15,0.00
2013-4-3,66.0,54.7,43.0,28.0,23.2,18.0,48,29,22,30.09,29.91,17,-6,25,0.00
2013-4-4,57.0,45.8,36.0,28.0,25.9,23.0,64,46,30,30.07,29.82,15,7,21,0.00
2013-4-5,61.0,50.9,41.0,39.0,29.5,25.0,58,44,26,29.83,29.73,24,-5,31,0.00
2013-4-6,63.0,51.3,37.0,34.0,26.5,21.0,60,39,23,29.86,29.76,21,9,29,0.00
2013-4-7,61.0,46.8,36.0,37.0,32.7,27.0,80,59,26,29.81,29.57,25,4,39,0.00
2013-4-8,36.0,23.1,19.0,30.0,16.9,12.0,86,76,67,30.23,29.70,16,10,22,0.00
2013-4-9,28.0,21.7,18.0,14.0,12.3,10.0,79,68,49,30.36,30.23,7,2,0,0.00
2013-4-10,46.0,30.0,14.0,21.0,15.4,7.0,78,56,36,30.24,29.80,17,8,25,0.00
2013-4-11,57.0,45.3,34.0,32.0,25.6,18.0,69,48,28,29.92,29.77,24,12,35,0.00
2013-4-12,52.0,41.2,34.0,30.0,22.0,16.0,74,49,25,30.03,29.73,17,-8,25,0.00
2013-4-13,52.0,37.7,34.0,36.0,25.2,18.0,86,61,40,29.73,29.42,32,0,40,0.00
2013-4-14,39.0,32.6,23.0,25.0,18.5,16.0,80,57,38,29.92,29.62,23,13,33,0.00
2013-4-15,32.0,25.3,19.0,21.0,16.5,12.0,79,69,46,30.09,29.91,13,3,18,0.00
2013-4-16,28.0,25.5,21.0,19.0,18.0,16.0,79,72,63,30.22,30.02,13,-120,17,0.00
2013-4-17,34.0,25.3,16.0,21.0,16.8,10.0,85,70,46,30.24,30.19,15,3,18,0.00
2013-4-18,52.0,35.5,18.0,21.0,16.7,10.0,79,51,23,30.20,30.05,18,8,28,0.00
2013-4-19,57.0,45.7,30.0,37.0,24.9,19.0,81,46,27,30.05,29.81,23,8,33,0.00
2013-4-20,61.0,49.5,37.0,36.0,28.9,21.0,75,48,21,29.96,29.82,24,-2,33,0.00
2013-4-21,46.0,33.0,27.0,30.0,25.0,21.0,86,72,49,30.18,29.95,16,10,21,0.00
2013-4-22,32.0,26.8,23.0,21.0,18.1,14.0,79,69,50,30.37,30.18,15,5,22,0.00
2013-4-23,50.0,33.4,18.0,25.0,14.1,5.0,79,49,15,30.30,30.06,20,10,28,0.00
2013-4-24,57.0,44.1,30.0,28.0,21.3,14.0,80,45,20,30.18,29.90,23,-4,37,0.00
2013-4-25,68.0,53.9,37.0,23.0,19.0,12.0,47,28,13,29.96,29.81,28,12,41,0.00
2013-4-26,73.0,58.8,43.0,28.0,24.4,19.0,45,28,14,30.11,29.96,17,7,25,0.00
2013-4-27,75.0,61.8,43.0,28.0,24.1,19.0,52,26,12,30.07,29.84,22,9,33,0.00
2013-4-28,64.0,58.0,52.0,34.0,28.0,21.0,43,32,20,29.98,29.77,16,5,21,0.00
2013-4-29,68.0,50.5,43.0,37.0,28.5,12.0,70,44,19,29.78,29.52,39,12,48,0.00
2013-4-30,48.0,40.0,30.0,21.0,13.2,9.0,50,33,22,30.20,29.76,28,14,36,0.00
2013-5-1,48.0,36.4,27.0,18.0,14.6,10.0,63,43,21,30.51,30.20,9,3,0,0.00
2013-5-2,64.0,47.7,28.0,25.0,17.1,12.0,63,33,14,30.53,30.22,17,11,29,0.00
2013-5-3,64.0,54.1,45.0,39.0,23.1,14.0,75,32,18,30.22,30.10,22,11,29,0.00
2013-5-4,59.0,49.1,43.0,39.0,36.6,30.0,81,63,38,30.24,30.18,20,4,24,0.00
2013-5-5,66.0,51.3,36.0,34.0,29.4,25.0,75,46,24,30.20,30.02,14,3,20,0.00
2013-5-6,73.0,57.1,36.0,36.0,27.6,19.0,60,34,20,30.04,29.89,9,3,0,0.00
2013-5-7,79.0,62.1,39.0,36.0,29.4,25.0,64,32,15,29.95,29.85,14,-23,25,0.00
2013-5-8,72.0,59.1,46.0,36.0,33.9,27.0,61,39,26,30.14,29.95,15,6,24,0.00
2013-5-9,75.0,58.5,43.0,37.0,35.1,30.0,65,43,23,30.15,30.07,13,-10,29,0.00
2013-5-10,72.0,58.2,41.0,39.0,29.9,-99.9,70,38,19,30.35,30.11,23,9,29,0.00
2013-5-11,77.0,58.2,37.0,34.0,25.2,-99.9,44,29,19,30.36,30.07,10,2,16,0.00
2013-5-12,90.0,72.2,54.0,45.0,34.8,30.0,46,27,12,30.09,29.94,21,8,31,0.00
2013-5-13,91.0,75.2,61.0,43.0,35.7,28.0,41,26,10,30.01,29.74,23,-42,32,0.00
2013-5-14,79.0,67.8,52.0,41.0,34.2,25.0,57,31,17,29.96,29.76,17,6,30,0.00
2013-5-15,75.0,62.2,46.0,39.0,25.8,18.0,41,25,18,30.04,29.86,13,4,20,0.00
2013-5-16,70.0,54.1,52.0,48.0,26.2,-99.9,76,56,35,29.92,29.82,16,5,23,0.00
2013-5-17,61.0,53.9,50.0,50.0,43.4,-99.9,87,74,59,29.90,29.85,9,2,0,0.00
2013-5-18,57.0,53.1,48.0,48.0,46.7,45.0,87,79,71,29.94,29.89,8,2,0,0.00
2013-5-19,52.0,51.7,50.0,46.0,45.1,43.0,81,77,76,30.05,29.93,24,13,30,0.00
2013-5-20,64.0,55.5,48.0,46.0,40.0,27.0,81,59,25,30.15,30.04,18,12,27,0.00
2013-5-21,68.0,53.7,39.0,39.0,34.5,28.0,80,52,25,30.13,29.92,17,5,23,0.00
2013-5-22,66.0,53.5,45.0,43.0,40.7,36.0,81,63,42,29.97,29.86,15,4,22,0.00
2013-5-23,70.0,58.2,50.0,50.0,44.6,41.0,81,61,40,29.93,29.74,0,0,0,0.00
2013-5-24,70.0,58.9,48.0,48.0,34.7,27.0,81,45,19,29.96,29.75,0,-28,0,0.00
2013-5-25,73.0,60.5,41.0,41.0,35.4,28.0,65,40,25,29.93,29.84,0,-120,0,0.00
2013-5-26,72.0,59.9,48.0,50.0,43.0,36.0,71,54,43,29.98,29.82,0,-21,0,0.00
2013-5-27,64.0,55.9,48.0,46.0,43.4,39.0,81,64,45,29.90,29.80,0,0,0,0.00
2013-5-28,70.0,57.3,46.0,48.0,41.8,37.0,81,58,32,29.80,29.70,0,0,0,0.00
2013-5-29,55.0,52.8,52.0,48.0,46.5,45.0,87,80,76,29.77,29.69,0,0,0,0.00
2013-5-30,55.0,52.5,50.0,46.0,43.2,37.0,81,71,57,29.85,29.67,0,0,0,0.00
2013-5-31,55.0,49.2,46.0,43.0,39.3,37.0,81,69,57,30.21,29.84,0,0,0,0.00
2013-6-1,66.0,56.8,46.0,43.0,40.6,37.0,81,56,34,30.23,30.06,0,0,0,0.00
2013-6-2,75.0,61.7,50.0,50.0,45.0,41.0,76,56,35,30.06,29.70,0,-28,0,0.00
2013-6-3,61.0,52.6,46.0,48.0,38.0,34.0,81,58,36,30.06,29.74,0,0,0,0.00
2013-6-4,54.0,47.8,41.0,37.0,34.6,30.0,75,60,50,30.25,30.05,12,-40,0,0.00
2013-6-5,68.0,53.4,36.0,41.0,35.9,30.0,86,55,28,30.24,30.02,8,2,0,0.00
2013-6-6,79.0,62.9,46.0,48.0,42.6,36.0,71,49,25,30.06,30.02,9,-466,0,0.00
2013-6-7,84.0,66.5,48.0,52.0,45.8,39.0,87,51,21,30.03,29.73,0,-999,0,0.00
2013-6-8,79.0,68.1,57.0,45.0,40.6,36.0,58,38,20,29.96,29.78,17,-194,24,0.00
2013-6-9,82.0,66.7,46.0,52.0,44.1,39.0,81,48,25,29.96,29.72,10,5,17,0.00
2013-6-10,79.0,65.3,52.0,54.0,45.8,39.0,76,51,27,29.93,29.79,13,6,20,0.00
2013-6-11,75.0,63.3,54.0,59.0,52.8,46.0,87,68,52,30.03,29.79,17,6,27,0.00
2013-6-12,73.0,61.2,50.0,57.0,51.8,45.0,87,71,49,30.09,29.93,21,3,25,0.00
2013-6-13,79.0,64.9,54.0,57.0,52.0,48.0,87,65,36,30.02,29.78,24,-22,30,0.00
2013-6-14,66.0,57.5,46.0,48.0,38.7,32.0,81,52,27,30.06,29.94,25,11,35,0.00
2013-6-15,75.0,61.4,43.0,39.0,35.6,30.0,70,41,20,30.08,29.96,8,2,0,0.00
2013-6-16,77.0,64.5,46.0,45.0,41.8,37.0,76,45,27,30.13,30.00,13,4,0,0.00
2013-6-17,79.0,67.3,52.0,52.0,47.2,43.0,71,49,34,30.14,29.98,13,6,21,0.00
2013-6-18,86.0,70.1,55.0,57.0,49.0,43.0,71,49,23,29.99,29.75,12,4,16,0.00
2013-6-19,86.0,70.5,55.0,54.0,46.2,28.0,66,42,29,29.76,29.48,30,10,43,0.00
2013-6-20,73.0,61.1,52.0,32.0,27.4,21.0,40,28,18,29.92,29.69,21,7,33,0.00
2013-6-22,66.0,59.0,50.0,50.0,45.6,39.0,76,62,44,30.02,29.93,16,6,27,0.00
2013-6-23,75.0,61.5,45.0,45.0,41.5,37.0,81,51,27,29.99,29.78,13,5,17,0.00
2013-6-24,86.0,67.8,50.0,52.0,46.7,41.0,76,49,21,29.78,29.62,14,3,21,0.00
2013-6-25,82.0,73.5,63.0,48.0,42.5,37.0,59,34,20,29.88,29.68,16,-4,22,0.00
2013-6-26,84.0,73.0,61.0,54.0,46.4,43.0,63,40,24,30.10,29.87,16,4,29,0.00
2013-6-27,88.0,73.5,55.0,57.0,51.9,48.0,82,50,25,30.22,30.10,10,4,16,0.00
2013-6-28,91.0,76.0,61.0,54.0,50.5,46.0,67,43,22,30.26,30.14,10,-6,15,0.00
2013-6-29,88.0,75.1,61.0,57.0,52.6,48.0,77,47,29,30.20,30.08,27,7,35,0.00
2013-6-30,88.0,72.5,57.0,59.0,54.9,52.0,87,57,31,30.15,30.08,15,2,25,0.00
2013-7-1,90.0,76.5,61.0,55.0,53.2,50.0,77,46,27,30.21,30.15,9,4,0,0.00
2013-7-2,91.0,78.7,59.0,57.0,51.3,45.0,76,42,19,30.17,29.99,7,2,0,0.00
2013-7-3,97.0,84.3,61.0,55.0,49.0,45.0,67,33,17,29.99,29.88,20,-17,28,0.00
2013-7-4,91.0,77.1,66.0,61.0,56.2,48.0,68,50,27,29.97,29.82,16,7,27,0.00
2013-7-5,79.0,71.2,66.0,57.0,54.2,50.0,68,55,39,29.89,29.80,16,6,25,0.00
2013-7-6,82.0,67.7,57.0,55.0,51.5,48.0,82,59,30,29.97,29.85,14,5,20,0.00
2013-7-7,81.0,67.4,57.0,57.0,52.6,45.0,82,60,31,30.01,29.89,15,3,40,0.00
2013-7-8,81.0,65.7,57.0,57.0,53.4,48.0,82,65,39,30.05,29.95,9,1,0,0.00
2013-7-9,81.0,70.1,57.0,57.0,52.1,46.0,87,57,32,30.17,30.05,10,4,15,0.00
2013-7-10,93.0,72.7,55.0,55.0,44.7,-99.9,76,43,17,30.13,29.90,8,-7,0,0.00
2013-7-14,84.0,70.2,55.0,54.0,49.3,45.0,72,49,30,30.22,30.05,14,8,18,0.00
2013-7-15,97.0,77.1,57.0,57.0,48.7,37.0,72,43,12,30.05,29.89,10,3,0,0.00
2013-7-16,79.0,63.9,61.0,50.0,43.4,39.0,59,48,27,30.26,29.94,17,6,25,0.00
2013-7-17,81.0,68.7,57.0,61.0,50.4,45.0,62,53,40,30.20,30.03,15,2,23,0.00
2013-7-18,93.0,77.8,59.0,55.0,45.8,30.0,72,37,11,30.12,30.03,14,-6,20,0.00
2013-7-19,91.0,77.0,57.0,48.0,42.3,34.0,54,31,14,30.13,29.95,10,-6,15,0.00
2013-7-20,90.0,74.7,61.0,48.0,40.6,-99.9,48,31,17,30.03,29.87,9,4,0,0.00
2013-7-21,93.0,77.4,55.0,46.0,39.7,32.0,58,28,12,29.93,29.84,15,8,20,0.00
2013-7-22,93.0,76.5,57.0,52.0,43.6,28.0,58,34,10,29.98,29.84,15,6,21,0.00
2013-7-23,91.0,74.6,55.0,48.0,43.9,37.0,62,35,16,30.12,29.99,15,5,27,0.00
2013-7-24,93.0,76.5,63.0,54.0,47.5,41.0,55,38,19,30.13,29.92,13,4,21,0.00
2013-7-25,84.0,72.6,57.0,52.0,49.5,45.0,71,45,28,30.20,30.00,22,9,30,0.00
2013-7-26,84.0,68.8,55.0,52.0,47.1,43.0,66,47,28,30.25,30.06,14,8,18,0.00
2013-7-27,88.0,71.3,55.0,50.0,45.2,41.0,62,40,23,30.08,29.88,13,-8,15,0.00
2013-7-28,79.0,69.9,57.0,55.0,48.2,43.0,82,47,31,29.97,29.87,22,-18,31,0.00
2013-7-29,75.0,64.6,55.0,52.0,49.4,46.0,87,60,38,30.09,29.92,14,7,18,0.00
2013-7-30,79.0,66.5,55.0,55.0,50.3,48.0,82,57,36,30.22,30.03,16,4,30,0.00
2013-7-31,88.0,68.6,52.0,55.0,49.8,43.0,87,57,20,30.24,30.07,7,1,0,0.00
2013-8-1,81.0,71.0,61.0,52.0,48.8,45.0,67,46,32,30.09,29.84,17,7,31,0.00
2013-8-2,73.0,65.1,57.0,55.0,52.5,45.0,87,64,46,30.09,29.94,13,6,18,0.00
2013-8-3,79.0,66.3,55.0,55.0,52.7,46.0,87,62,41,30.13,30.01,13,5,20,0.00
2013-8-4,84.0,69.2,55.0,55.0,52.7,46.0,87,58,32,30.11,29.98,12,4,17,0.00
2013-8-5,91.0,72.1,57.0,55.0,48.5,39.0,72,47,16,30.05,29.89,17,5,32,0.00
2013-8-6,86.0,70.7,54.0,48.0,44.0,39.0,76,41,19,30.06,29.98,14,-14,22,0.00
2013-8-7,86.0,69.6,54.0,48.0,44.4,37.0,67,42,22,30.07,29.94,16,4,23,0.00
2013-8-8,82.0,67.6,54.0,52.0,47.6,45.0,71,51,30,30.09,30.01,16,6,22,0.00
2013-8-9,77.0,66.1,61.0,59.0,50.5,45.0,82,58,41,30.15,30.09,15,6,20,0.00
2013-8-10,84.0,67.4,54.0,57.0,51.6,43.0,93,60,33,30.11,30.02,10,2,0,0.00
2013-8-13,86.0,68.8,57.0,52.0,42.9,-99.9,62,43,27,30.15,30.08,14,5,20,0.00
2013-8-14,88.0,69.1,55.0,48.0,40.8,-99.9,66,40,16,30.13,30.00,12,4,17,0.00
2013-8-15,91.0,62.0,54.0,50.0,20.7,-99.9,66,35,15,30.09,29.99,10,3,0,0.00
2013-8-16,93.0,73.7,57.0,50.0,37.8,-99.9,54,31,19,30.03,29.92,9,2,0,0.00
2013-8-17,91.0,77.2,61.0,48.0,40.0,-99.9,44,28,21,30.04,29.93,9,5,0,0.00
2013-8-18,90.0,77.8,63.0,48.0,45.3,43.0,51,32,22,30.08,29.94,13,-15,0,0.00
2013-8-19,99.0,72.0,61.0,46.0,29.4,-99.9,55,30,9,30.03,29.89,14,-10,20,0.00
2013-8-20,93.0,76.5,59.0,43.0,34.2,-99.9,41,23,12,30.01,29.89,10,3,15,0.00
2013-8-21,84.0,73.3,57.0,45.0,40.7,36.0,58,32,20,30.11,29.95,14,-7,18,0.00
2013-8-26,93.0,81.0,73.0,46.0,42.4,37.0,35,26,15,30.01,29.93,13,5,22,0.00
2013-8-27,84.0,73.7,66.0,48.0,45.6,43.0,52,37,26,30.07,29.97,12,-25,16,0.00
2013-8-28,93.0,83.6,68.0,57.0,48.4,45.0,52,31,19,30.03,29.91,20,5,36,0.00
2013-8-29,91.0,73.8,57.0,54.0,49.9,45.0,71,46,21,30.13,30.04,10,4,16,0.00
2013-8-30,95.0,74.1,57.0,54.0,48.4,37.0,76,44,13,30.09,29.94,12,4,18,0.00
2013-8-31,82.0,72.0,61.0,46.0,37.9,-99.9,45,30,21,30.14,29.98,9,5,0,0.00
2013-9-1,88.0,70.6,50.0,45.0,39.1,34.0,61,33,20,30.12,29.97,9,3,0,0.00
2013-9-23,72.0,60.8,52.0,41.0,34.0,28.0,58,39,21,29.93,29.69,28,11,37,0.00
2013-9-24,73.0,57.6,39.0,37.0,34.4,30.0,75,44,24,29.96,29.70,29,-14,39,0.00
2013-9-25,52.0,48.1,46.0,45.0,40.1,34.0,87,73,57,29.75,29.68,13,4,16,0.00
2013-9-26,48.0,43.8,39.0,43.0,36.2,32.0,87,73,57,29.98,29.73,14,5,18,0.00
2013-9-27,55.0,44.4,39.0,36.0,34.0,25.0,86,68,32,30.00,29.89,15,-12,21,0.00
2013-9-28,64.0,50.0,39.0,37.0,31.7,-99.9,80,53,31,29.93,29.85,18,11,27,0.00
2013-9-29,72.0,58.5,45.0,37.0,35.5,34.0,70,43,24,29.82,29.63,27,10,36,0.00
2013-9-30,70.0,51.1,41.0,46.0,33.8,19.0,80,54,24,29.82,29.54,35,11,46,0.00
2013-10-1,61.0,54.2,50.0,34.0,31.9,30.0,49,42,36,29.95,29.89,8,2,0,0.00
2013-10-2,55.0,49.2,41.0,37.0,31.8,25.0,81,53,30,30.09,29.95,13,5,17,0.00
2013-10-3,46.0,38.2,34.0,37.0,31.2,25.0,86,76,55,30.24,29.92,18,12,23,0.00
2013-10-4,43.0,35.3,30.0,30.0,27.6,25.0,86,74,52,30.40,30.25,12,5,18,0.00
2013-10-5,54.0,37.3,25.0,28.0,23.3,16.0,79,58,34,30.30,30.18,15,7,20,0.00
2013-10-6,64.0,49.8,37.0,37.0,30.0,25.0,60,46,33,30.19,30.03,20,10,25,0.00
2013-10-7,64.0,57.0,48.0,37.0,33.9,30.0,53,41,31,30.02,29.71,20,11,29,0.00
2013-10-18,55.0,43.9,34.0,27.0,24.1,19.0,64,46,30,30.18,29.99,16,8,24,0.00
2013-10-19,59.0,47.5,37.0,30.0,22.1,-99.9,51,39,30,29.99,29.88,13,7,21,0.00
2013-10-20,54.0,47.4,43.0,30.0,27.6,27.0,56,46,34,30.07,29.97,22,7,28,0.00
2013-10-21,63.0,50.0,39.0,34.0,30.7,23.0,65,48,31,30.09,30.03,16,6,25,0.00
2013-10-22,64.0,49.7,37.0,39.0,32.1,25.0,70,51,34,30.12,30.04,12,6,17,0.00
2013-10-23,57.0,46.4,34.0,37.0,32.4,25.0,80,58,43,30.21,30.08,8,4,0,0.00
2013-10-24,55.0,42.8,30.0,37.0,31.0,25.0,86,64,43,30.23,30.07,7,1,0,0.00
2013-10-25,68.0,50.9,37.0,39.0,31.4,27.0,64,49,26,30.24,30.05,13,6,21,0.00
2013-10-26,66.0,50.4,32.0,36.0,28.2,-99.9,74,46,29,30.24,29.98,17,7,23,0.00
2013-10-27,61.0,48.5,36.0,30.0,28.1,21.0,64,47,26,30.07,29.84,18,-30,24,0.00
2013-10-28,36.0,26.2,23.0,25.0,15.9,-99.9,79,71,51,30.14,30.09,16,11,23,0.00
2013-10-29,28.0,25.8,21.0,21.0,18.9,16.0,79,76,68,30.09,29.87,6,0,0,0.00
2013-10-30,52.0,38.5,19.0,28.0,22.7,10.0,79,53,37,29.84,29.78,10,5,0,0.00
2013-10-31,54.0,44.2,32.0,32.0,26.2,19.0,80,50,36,29.93,29.75,27,-2,36,0.00
2013-11-14,46.0,38.5,28.0,25.0,21.1,18.0,63,49,38,30.08,29.71,10,2,18,0.00
2013-11-15,50.0,35.2,23.0,25.0,17.4,14.0,73,50,27,29.70,29.39,23,-49,35,0.00
2013-11-16,48.0,38.2,32.0,27.0,18.2,-99.9,69,47,33,29.49,29.29,18,4,29,0.00
2013-11-17,45.0,36.2,25.0,19.0,14.7,10.0,59,42,26,29.92,29.51,25,-34,36,0.00
2013-11-18,57.0,42.6,23.0,19.0,14.2,9.0,54,33,20,29.91,29.75,18,7,29,0.00
2013-11-19,61.0,49.5,41.0,27.0,21.9,16.0,48,33,26,29.74,29.60,15,8,20,0.00
2013-11-20,39.0,13.0,7.0,23.0,2.5,-4.0,66,62,48,30.29,29.67,13,5,18,0.00
2013-11-27,54.0,41.1,27.0,25.0,19.1,16.0,68,42,32,30.12,30.00,15,7,23,0.00
2013-11-28,39.0,31.4,19.0,23.0,18.2,12.0,79,59,44,30.12,29.97,12,4,0,0.00
2013-11-29,57.0,41.1,30.0,27.0,21.8,18.0,63,47,28,30.05,29.98,10,-11,16,0.00
2013-11-30,54.0,40.7,36.0,27.0,21.6,-99.9,55,48,32,30.11,30.04,9,3,0,0.00
2013-12-1,48.0,40.8,34.0,28.0,25.1,21.0,60,53,42,30.03,29.66,15,5,22,0.00
2013-12-2,48.0,34.4,19.0,30.0,25.2,16.0,86,69,42,29.78,29.53,15,6,22,0.00
2013-12-3,19.0,11.1,7.0,16.0,4.3,-2.0,85,73,65,30.07,29.76,12,4,15,0.00
2013-12-4,7.0,2.3,-2.0,0.0,-7.8,-18.0,77,62,49,30.12,30.05,13,5,15,0.00
2013-12-20,25.0,17.3,9.0,10.0,5.5,0.0,66,59,52,29.86,29.53,16,9,22,0.00
2013-12-21,28.0,23.9,18.0,23.0,14.2,-99.9,86,71,53,29.93,29.53,6,2,0,0.00
2013-12-22,16.0,9.9,0.0,10.0,3.5,-8.0,85,75,66,30.18,29.91,15,-13,20,0.00
2013-12-23,37.0,23.5,-4.0,23.0,12.4,-11.0,79,63,51,30.17,29.80,27,15,36,0.00
2013-12-24,39.0,36.5,30.0,32.0,20.6,16.0,86,52,40,30.24,29.89,30,18,40,0.00
2013-12-25,36.0,27.9,18.0,18.0,13.6,9.0,67,54,43,30.27,30.04,24,11,33,0.00
2013-12-26,43.0,34.8,27.0,25.0,19.5,14.0,63,52,44,30.13,30.02,18,-27,28,0.00
2013-12-27,48.0,42.5,36.0,27.0,23.3,21.0,55,46,39,30.08,29.84,21,13,28,0.00
2013-12-28,45.0,24.0,12.0,23.0,8.0,-99.9,72,53,39,30.28,29.80,25,-44,37,0.00
2013-12-29,39.0,26.9,14.0,21.0,13.3,7.0,72,56,44,30.25,29.86,23,12,33,0.00
2013-12-30,39.0,37.1,32.0,23.0,20.8,19.0,59,51,44,30.11,29.85,24,11,35,0.00
2013-12-31,45.0,36.7,30.0,30.0,25.3,21.0,86,64,48,30.01,29.83,24,-8,32,0.00
2014-1-1,32.0,28.9,21.0,28.0,22.8,16.0,86,77,63,30.25,30.00,9,-36,0,0.00
2014-1-2,39.0,30.0,19.0,21.0,18.1,12.0,79,62,47,30.14,29.76,27,14,37,0.00